Time;durP1;ratioP1;P1;durP2;ratioP2;P2;SDS_P1;SDS_P2;PMS_P1;PMS_P2;Temp;Humidity;BMP_temperature;BMP_pressure;BME280_temperature;BME280_humidity;BME280_pressure;Samples;Min_cycle;Max_cycle;Signal;HPM_P1;HPM_P2
2022/05/23 00:01:03;;;;;;;11.88;6.85;;;23.30;96.20;;;;;;4974225;28;20125;-75
2022/05/23 00:03:30;;;;;;;14.18;7.10;;;23.30;96.20;;;;;;4975741;28;20027;-72
2022/05/23 00:05:56;;;;;;;16.58;6.90;;;23.30;96.20;;;;;;4975600;28;20078;-72
2022/05/23 00:08:22;;;;;;;16.63;7.43;;;23.30;96.20;;;;;;4975509;28;20023;-72
2022/05/23 00:10:48;;;;;;;17.48;7.20;;;23.30;96.10;;;;;;4974399;28;20097;-73
2022/05/23 00:13:13;;;;;;;16.42;7.63;;;23.30;96.10;;;;;;4975199;28;20015;-73
2022/05/23 00:15:39;;;;;;;17.85;7.60;;;23.30;96.00;;;;;;4975308;28;20388;-74
2022/05/23 00:18:05;;;;;;;14.68;7.80;;;23.30;95.80;;;;;;4973865;28;20476;-73
2022/05/23 00:20:31;;;;;;;15.32;8.07;;;23.20;95.60;;;;;;4975192;28;20102;-74
2022/05/23 00:22:57;;;;;;;12.07;6.93;;;23.20;95.40;;;;;;4975526;28;20023;-75
2022/05/23 00:25:22;;;;;;;14.52;7.35;;;23.20;95.00;;;;;;4975599;28;20022;-74
2022/05/23 00:27:48;;;;;;;18.02;7.93;;;23.20;94.20;;;;;;4975431;28;20035;-73
2022/05/23 00:30:18;;;;;;;13.75;7.45;;;23.10;93.40;;;;;;4974881;28;20041;-74
2022/05/23 00:35:28;;;;;;;21.73;9.30;;;23.10;93.10;;;;;;4975591;28;20045;-74
2022/05/23 00:37:56;;;;;;;21.15;9.85;;;23.10;92.70;;;;;;4975018;28;20031;-74
2022/05/23 00:40:30;;;;;;;19.10;9.52;;;23.10;92.70;;;;;;4975111;28;20106;-74
2022/05/23 00:43:13;;;;;;;18.38;9.32;;;23.10;92.80;;;;;;4974863;28;20027;-76
2022/05/23 00:45:53;;;;;;;22.17;8.85;;;23.10;92.50;;;;;;4975651;28;20057;-74
2022/05/23 00:48:22;;;;;;;21.40;9.10;;;23.10;92.20;;;;;;4974817;28;20026;-73
2022/05/23 00:51:13;;;;;;;21.40;7.93;;;23.10;91.80;;;;;;4974591;28;20089;-75
2022/05/23 00:53:50;;;;;;;18.10;7.28;;;23.10;91.90;;;;;;4974851;28;20077;-74
2022/05/23 00:56:18;;;;;;;16.15;7.05;;;23.10;91.40;;;;;;4973533;28;20387;-74
2022/05/23 00:58:47;;;;;;;13.07;7.20;;;23.00;90.00;;;;;;4974536;28;20058;-73
2022/05/23 01:01:18;;;;;;;14.85;7.90;;;23.00;89.10;;;;;;4974628;28;20073;-73
2022/05/23 01:03:44;;;;;;;17.27;8.32;;;23.00;87.10;;;;;;4974805;28;20429;-73
2022/05/23 01:06:09;;;;;;;19.52;8.93;;;22.90;85.90;;;;;;4974371;28;20034;-74
2022/05/23 01:08:36;;;;;;;15.88;9.15;;;22.90;85.40;;;;;;4974496;28;20098;-76
2022/05/23 01:11:03;;;;;;;20.80;9.85;;;22.90;84.00;;;;;;4974346;28;20031;-75
2022/05/23 01:13:29;;;;;;;23.30;11.80;;;22.90;84.20;;;;;;4974277;28;20023;-75
2022/05/23 01:15:55;;;;;;;25.38;11.50;;;22.90;84.10;;;;;;4974422;28;20084;-74
2022/05/23 01:18:21;;;;;;;22.70;11.80;;;22.90;83.80;;;;;;4974491;28;20102;-74
2022/05/23 01:20:52;;;;;;;24.48;11.23;;;22.90;83.90;;;;;;4974096;28;20133;-75
2022/05/23 01:23:44;;;;;;;22.20;10.63;;;22.90;83.40;;;;;;4974203;28;20046;-75
2022/05/23 01:26:10;;;;;;;21.05;11.02;;;22.80;84.00;;;;;;4974158;28;20487;-74
2022/05/23 01:28:38;;;;;;;16.25;8.85;;;22.80;82.70;;;;;;4974078;28;20038;-73
2022/05/23 01:31:06;;;;;;;15.55;8.07;;;22.80;82.60;;;;;;4974322;28;20038;-74
2022/05/23 01:33:33;;;;;;;15.75;7.72;;;22.70;82.30;;;;;;4972829;28;20037;-76
2022/05/23 01:35:59;;;;;;;18.70;8.77;;;22.70;83.20;;;;;;4974146;28;20049;-74
2022/05/23 01:38:25;;;;;;;20.65;11.70;;;22.60;82.70;;;;;;4974314;28;20396;-74
2022/05/23 01:40:53;;;;;;;22.50;13.65;;;22.50;82.70;;;;;;4973915;28;20113;-74
2022/05/23 01:43:19;;;;;;;27.20;14.18;;;22.60;82.00;;;;;;4974263;28;20027;-76
2022/05/23 01:45:45;;;;;;;23.65;13.35;;;22.50;81.80;;;;;;4974107;28;20054;-73
2022/05/23 01:48:11;;;;;;;22.05;11.38;;;22.50;82.60;;;;;;4974362;28;20089;-73
2022/05/23 01:50:36;;;;;;;18.88;9.77;;;22.50;83.00;;;;;;4974151;28;20070;-74
2022/05/23 01:53:03;;;;;;;17.08;10.05;;;22.50;83.40;;;;;;4973830;28;20495;-75
2022/05/23 01:55:29;;;;;;;20.10;9.50;;;22.50;83.40;;;;;;4973943;28;20034;-76
2022/05/23 01:57:54;;;;;;;15.07;9.00;;;22.50;83.70;;;;;;4973868;28;20050;-75
2022/05/23 02:03:05;;;;;;;12.07;7.38;;;22.40;84.40;;;;;;4974036;28;20086;-74
2022/05/23 02:05:33;;;;;;;13.85;7.07;;;22.40;84.60;;;;;;4974085;28;20027;-76
2022/05/23 02:07:59;;;;;;;16.05;7.03;;;22.40;84.70;;;;;;4974174;28;20037;-75
2022/05/23 02:10:25;;;;;;;13.85;7.25;;;22.40;84.80;;;;;;4972625;28;20038;-75
2022/05/23 02:12:50;;;;;;;11.45;7.13;;;22.40;85.00;;;;;;4974091;28;20027;-76
2022/05/23 02:15:18;;;;;;;12.80;6.53;;;22.40;85.00;;;;;;4973835;28;20134;-74
2022/05/23 02:17:44;;;;;;;11.63;6.35;;;22.40;85.10;;;;;;4973942;28;20461;-74
2022/05/23 02:20:11;;;;;;;14.30;5.82;;;22.40;85.60;;;;;;4974371;28;20033;-75
2022/05/23 02:22:37;;;;;;;12.68;6.50;;;22.40;85.70;;;;;;4975213;28;20034;-73
2022/05/23 02:25:04;;;;;;;16.75;7.68;;;22.40;85.80;;;;;;4974121;28;20019;-73
2022/05/23 02:27:30;;;;;;;15.82;6.78;;;22.40;85.70;;;;;;4974279;28;20130;-75
2022/05/23 02:29:57;;;;;;;16.52;7.07;;;22.40;85.50;;;;;;4973775;28;20082;-74
2022/05/23 02:32:23;;;;;;;12.10;6.50;;;22.50;85.70;;;;;;4973828;28;20033;-74
2022/05/23 02:34:49;;;;;;;14.88;6.72;;;22.40;85.90;;;;;;4975115;28;20023;-75
2022/05/23 02:37:15;;;;;;;14.32;7.05;;;22.40;86.00;;;;;;4977098;28;20030;-73
2022/05/23 02:39:40;;;;;;;11.32;5.82;;;22.40;86.30;;;;;;4975599;28;20498;-73
2022/05/23 02:42:08;;;;;;;11.60;6.03;;;22.40;86.30;;;;;;4976822;28;20046;-73
2022/05/23 02:44:34;;;;;;;11.27;6.30;;;22.40;86.10;;;;;;4975942;28;20019;-73
2022/05/23 02:47:00;;;;;;;12.30;6.60;;;22.40;86.00;;;;;;4976766;28;20027;-74
2022/05/23 02:49:26;;;;;;;14.57;7.00;;;22.40;86.10;;;;;;4975423;28;20097;-73
2022/05/23 02:51:53;;;;;;;15.98;7.05;;;22.40;86.30;;;;;;4976651;28;20373;-75
2022/05/23 02:54:19;;;;;;;17.67;7.63;;;22.30;86.20;;;;;;4976902;28;20023;-74
2022/05/23 02:56:45;;;;;;;18.67;7.93;;;22.30;86.30;;;;;;4976933;28;20488;-72
2022/05/23 02:59:11;;;;;;;17.17;7.57;;;22.30;85.80;;;;;;4976810;28;20031;-73
2022/05/23 03:03:01;;;;;;;18.85;8.50;;;22.30;85.40;;;;;;4976585;28;20038;-75
2022/05/23 03:04:22;;;;;;;15.25;7.70;;;22.20;85.10;;;;;;4976740;28;20369;-74
2022/05/23 03:06:48;;;;;;;17.83;7.85;;;22.20;84.80;;;;;;4976782;28;20058;-73
2022/05/23 03:09:13;;;;;;;15.80;8.32;;;22.20;84.40;;;;;;4976429;28;20504;-73
2022/05/23 03:11:39;;;;;;;16.08;8.15;;;22.20;83.50;;;;;;4976647;28;20027;-74
2022/05/23 03:14:05;;;;;;;12.38;7.60;;;22.10;82.70;;;;;;4976590;28;20503;-75
2022/05/23 03:16:30;;;;;;;13.30;7.50;;;22.10;82.40;;;;;;4976404;28;20033;-73
2022/05/23 03:18:56;;;;;;;13.82;7.50;;;22.00;82.10;;;;;;4976358;28;20023;-71
2022/05/23 03:26:59;;;;;;;12.95;7.65;;;21.80;82.80;;;;;;4976379;28;20113;-72
2022/05/23 03:29:28;;;;;;;16.83;7.75;;;21.90;82.40;;;;;;4976221;28;20027;-73
2022/05/23 03:31:54;;;;;;;14.90;7.43;;;21.90;82.70;;;;;;4976427;28;20073;-75
2022/05/23 03:34:20;;;;;;;17.10;7.57;;;21.90;81.60;;;;;;4976179;28;20090;-74
2022/05/23 03:36:46;;;;;;;13.10;7.15;;;21.90;81.00;;;;;;4976259;28;20030;-73
2022/05/23 03:39:12;;;;;;;14.30;7.47;;;21.90;80.90;;;;;;4976034;28;20106;-75
2022/05/23 03:41:38;;;;;;;19.75;7.55;;;22.00;81.20;;;;;;4976074;28;20042;-74
2022/05/23 03:44:08;;;;;;;15.60;7.63;;;22.00;80.90;;;;;;4975874;28;20015;-72
2022/05/23 03:46:35;;;;;;;15.55;7.85;;;22.00;79.90;;;;;;4974801;28;20033;-74
2022/05/23 03:49:02;;;;;;;15.93;7.55;;;22.00;79.60;;;;;;4976012;28;20046;-74
2022/05/23 03:51:28;;;;;;;13.98;7.60;;;22.00;79.80;;;;;;4975477;28;20066;-73
2022/05/23 03:53:55;;;;;;;12.88;6.95;;;22.00;80.00;;;;;;4975949;28;20027;-75
2022/05/23 03:56:21;;;;;;;16.80;8.02;;;22.00;79.80;;;;;;4975809;28;20412;-73
2022/05/23 03:58:47;;;;;;;20.92;8.02;;;22.00;80.00;;;;;;4975534;28;20037;-72
2022/05/23 04:01:17;;;;;;;16.67;7.43;;;21.90;79.90;;;;;;4975688;28;20041;-75
2022/05/23 04:03:43;;;;;;;15.43;8.20;;;21.90;80.30;;;;;;4975732;28;20433;-75
2022/05/23 04:06:09;;;;;;;16.75;7.43;;;21.90;80.40;;;;;;4975646;28;20134;-74
2022/05/23 04:08:35;;;;;;;17.33;8.27;;;22.00;80.10;;;;;;4975753;28;20531;-75
2022/05/23 04:11:02;;;;;;;12.63;6.95;;;22.00;80.00;;;;;;4975661;28;20353;-75
2022/05/23 04:13:28;;;;;;;12.77;7.40;;;21.90;79.70;;;;;;4975997;28;20033;-73
2022/05/23 04:15:55;;;;;;;15.70;7.95;;;21.90;80.10;;;;;;4976450;28;20403;-75
2022/05/23 04:18:21;;;;;;;21.80;7.95;;;21.80;79.90;;;;;;4976405;28;20023;-75
2022/05/23 04:20:47;;;;;;;17.48;7.35;;;21.90;80.00;;;;;;4975737;28;20468;-76
2022/05/23 04:23:13;;;;;;;11.00;6.55;;;21.90;79.60;;;;;;4975407;28;20026;-75
2022/05/23 04:25:43;;;;;;;11.07;6.50;;;21.90;79.40;;;;;;4975409;28;20027;-77
2022/05/23 04:28:10;;;;;;;11.88;6.75;;;21.80;79.00;;;;;;4975452;28;20102;-75
2022/05/23 04:30:36;;;;;;;15.90;6.43;;;21.90;78.80;;;;;;4975127;28;20030;-77
2022/05/23 04:35:49;;;;;;;17.88;7.35;;;22.00;79.00;;;;;;4975678;28;20054;-75
2022/05/23 04:38:15;;;;;;;18.27;8.35;;;22.00;78.50;;;;;;4975098;28;20518;-76
2022/05/23 04:40:41;;;;;;;20.05;9.13;;;22.00;79.20;;;;;;4974968;28;20058;-75
2022/05/23 04:43:06;;;;;;;20.08;7.53;;;22.10;78.70;;;;;;4974652;28;20054;-74
2022/05/23 04:45:32;;;;;;;11.30;6.68;;;22.10;79.00;;;;;;4975005;28;20420;-74
2022/05/23 04:50:42;;;;;;;16.45;7.65;;;22.20;78.10;;;;;;4974894;28;20596;-75
2022/05/23 04:53:08;;;;;;;17.30;7.78;;;22.10;79.00;;;;;;4975045;28;20110;-75
2022/05/23 04:55:35;;;;;;;15.55;6.85;;;22.20;77.80;;;;;;4975353;28;20027;-76
2022/05/23 04:58:01;;;;;;;16.70;6.97;;;22.20;77.60;;;;;;4974734;28;20057;-77
2022/05/23 05:00:29;;;;;;;13.50;6.70;;;22.20;77.70;;;;;;4974365;28;20023;-75
2022/05/23 05:02:59;;;;;;;12.68;6.93;;;22.30;77.50;;;;;;4974851;28;20084;-78
2022/05/23 05:05:28;;;;;;;14.05;6.88;;;22.30;77.20;;;;;;4974462;28;20027;-76
2022/05/23 05:07:55;;;;;;;15.60;7.10;;;22.30;77.40;;;;;;4974893;28;20038;-78
2022/05/23 05:10:23;;;;;;;21.38;8.93;;;22.20;77.40;;;;;;4974764;28;20137;-74
2022/05/23 05:12:49;;;;;;;19.98;7.47;;;22.30;77.70;;;;;;4974403;28;20412;-72
2022/05/23 05:15:15;;;;;;;26.88;8.50;;;22.40;76.60;;;;;;4974278;28;20095;-73
2022/05/23 05:17:40;;;;;;;20.80;10.63;;;22.40;77.10;;;;;;4974317;28;20348;-71
2022/05/23 05:20:08;;;;;;;31.55;9.77;;;22.40;77.00;;;;;;4974278;28;20488;-70
2022/05/23 05:22:35;;;;;;;23.55;12.07;;;22.40;77.20;;;;;;4974215;28;20046;-70
2022/05/23 05:25:05;;;;;;;23.77;9.93;;;22.40;77.50;;;;;;4974336;28;20039;-70
2022/05/23 05:27:31;;;;;;;18.60;10.07;;;22.40;76.70;;;;;;4974168;28;20113;-71
2022/05/23 05:29:57;;;;;;;20.55;10.70;;;22.50;77.30;;;;;;4974377;28;20019;-72
2022/05/23 05:32:23;;;;;;;18.35;10.50;;;22.50;76.90;;;;;;4973954;28;20049;-71
2022/05/23 05:34:58;;;;;;;18.00;10.30;;;22.50;76.20;;;;;;4973864;28;20552;-74
2022/05/23 05:37:30;;;;;;;18.75;10.10;;;22.60;76.30;;;;;;4973879;28;20118;-73
2022/05/23 05:39:57;;;;;;;16.27;9.45;;;22.60;77.20;;;;;;4973626;28;20034;-72
2022/05/23 05:42:28;;;;;;;17.10;8.60;;;22.60;76.30;;;;;;4973914;28;20114;-72
2022/05/23 05:45:17;;;;;;;19.70;8.52;;;22.70;77.10;;;;;;4973937;28;20031;-71
2022/05/23 05:47:46;;;;;;;144.63;19.08;;;22.70;76.20;;;;;;4973592;28;20035;-70
2022/05/23 05:50:18;;;;;;;25.77;9.23;;;22.80;76.10;;;;;;4973291;28;20051;-70
2022/05/23 05:52:45;;;;;;;20.55;8.07;;;22.90;75.20;;;;;;4973587;28;20461;-75
2022/05/23 05:55:12;;;;;;;13.77;7.60;;;23.10;74.80;;;;;;4974020;28;20110;-76
2022/05/23 05:57:38;;;;;;;17.00;8.82;;;23.30;72.80;;;;;;4974111;28;20439;-75
2022/05/23 06:00:05;;;;;;;18.60;8.13;;;23.50;72.60;;;;;;4974013;28;20031;-75
2022/05/23 06:02:31;;;;;;;16.63;8.43;;;23.80;71.40;;;;;;4973830;28;20233;-74
2022/05/23 06:04:56;;;;;;;16.27;7.65;;;24.20;71.20;;;;;;4973594;28;20098;-74
2022/05/23 06:12:56;;;;;;;14.23;7.72;;;24.60;69.00;;;;;;4977470;28;20461;-74
2022/05/23 06:15:22;;;;;;;20.63;9.02;;;24.90;68.90;;;;;;4977712;28;20062;-75
2022/05/23 06:17:50;;;;;;;14.40;7.57;;;25.10;67.90;;;;;;4977207;28;20019;-74
2022/05/23 06:20:16;;;;;;;18.92;7.93;;;25.40;67.00;;;;;;4976835;28;20030;-74
2022/05/23 06:22:42;;;;;;;18.63;7.90;;;25.70;66.60;;;;;;4977070;28;20031;-73
2022/05/23 06:25:08;;;;;;;16.80;7.18;;;25.90;65.90;;;;;;4977199;28;20102;-74
2022/05/23 06:27:34;;;;;;;19.77;6.38;;;26.10;65.10;;;;;;4977214;28;20027;-72
2022/05/23 06:30:00;;;;;;;12.68;6.40;;;26.40;65.10;;;;;;4976790;28;20027;-69
2022/05/23 06:32:26;;;;;;;13.75;5.85;;;26.60;64.40;;;;;;4977176;28;20117;-71
2022/05/23 06:34:51;;;;;;;13.82;6.13;;;26.80;64.10;;;;;;4976883;28;20468;-70
2022/05/23 06:37:17;;;;;;;27.67;6.72;;;26.90;63.50;;;;;;4976563;28;20025;-71
2022/05/23 06:39:43;;;;;;;13.10;5.82;;;27.20;62.90;;;;;;4976745;28;20034;-71
2022/05/23 06:42:08;;;;;;;13.50;5.65;;;27.40;62.40;;;;;;4976775;28;20435;-71
2022/05/23 06:44:34;;;;;;;16.20;6.35;;;27.50;61.70;;;;;;4976903;28;20443;-71
2022/05/23 06:47:00;;;;;;;16.77;5.78;;;27.80;61.10;;;;;;4976699;28;20456;-72
2022/05/23 06:49:26;;;;;;;18.08;6.82;;;27.90;60.50;;;;;;4976357;28;20027;-72
2022/05/23 06:51:52;;;;;;;12.15;6.28;;;28.00;60.50;;;;;;4976135;28;20047;-72
2022/05/23 06:54:20;;;;;;;19.48;5.95;;;28.10;60.10;;;;;;4976383;28;20030;-71
2022/05/23 06:56:48;;;;;;;12.73;6.50;;;28.10;60.00;;;;;;4976364;28;20084;-70
2022/05/23 06:59:15;;;;;;;13.07;5.85;;;28.30;59.70;;;;;;4976393;28;20035;-69
2022/05/23 07:01:43;;;;;;;20.15;7.88;;;28.40;59.60;;;;;;4976149;28;20042;-71
2022/05/23 07:04:09;;;;;;;43.53;8.65;;;28.50;58.50;;;;;;4975105;28;20027;-69
2022/05/23 07:12:20;;;;;;;23.80;5.60;;;28.50;58.40;;;;;;4976582;28;20208;-69
2022/05/23 07:14:46;;;;;;;34.40;7.65;;;28.50;58.30;;;;;;4976336;28;20512;-69
2022/05/23 07:17:12;;;;;;;22.05;5.90;;;28.50;58.70;;;;;;4976146;28;20029;-70
2022/05/23 07:19:39;;;;;;;16.30;5.05;;;28.50;58.50;;;;;;4976185;28;20476;-68
2022/05/23 07:22:05;;;;;;;20.75;5.65;;;28.40;58.30;;;;;;4975636;28;20039;-69
2022/05/23 07:24:31;;;;;;;20.33;5.80;;;28.40;58.20;;;;;;4975994;28;20029;-69
2022/05/23 07:26:59;;;;;;;21.83;5.78;;;28.40;58.40;;;;;;4976349;28;20366;-69
2022/05/23 07:29:25;;;;;;;19.90;5.00;;;28.30;57.50;;;;;;4975628;28;20109;-68
2022/05/23 07:31:52;;;;;;;16.42;5.03;;;28.40;58.40;;;;;;4975762;28;20033;-68
2022/05/23 07:34:19;;;;;;;18.40;5.32;;;28.50;58.20;;;;;;4975805;28;20444;-69
2022/05/23 07:36:45;;;;;;;17.05;5.13;;;28.50;58.30;;;;;;4975486;28;20027;-68
2022/05/23 07:39:12;;;;;;;23.42;5.50;;;28.60;58.10;;;;;;4975919;28;20101;-68
2022/05/23 07:41:39;;;;;;;23.55;5.93;;;28.60;57.80;;;;;;4975665;28;20043;-69
2022/05/23 07:44:09;;;;;;;22.80;5.55;;;28.60;57.90;;;;;;4975780;28;20081;-70
2022/05/23 07:46:37;;;;;;;19.70;5.40;;;28.50;58.00;;;;;;4975721;28;20089;-69
2022/05/23 07:49:04;;;;;;;17.83;5.07;;;28.40;57.30;;;;;;4975216;28;20105;-69
2022/05/23 07:51:32;;;;;;;31.45;6.07;;;28.40;57.30;;;;;;4975146;28;20069;-70
2022/05/23 08:02:12;;;;;;;13.25;5.57;;;28.20;57.50;;;;;;4975222;28;20050;-67
2022/05/23 08:04:38;;;;;;;10.23;5.22;;;28.10;57.80;;;;;;4975111;28;20027;-70
2022/05/23 08:07:05;;;;;;;14.75;5.10;;;28.10;57.60;;;;;;4975167;28;20080;-68
2022/05/23 08:09:31;;;;;;;15.10;4.90;;;28.00;57.20;;;;;;4974942;28;20097;-69
2022/05/23 08:11:57;;;;;;;14.13;4.65;;;27.90;57.30;;;;;;4975008;28;20107;-70
2022/05/23 08:14:23;;;;;;;12.60;4.60;;;27.70;57.40;;;;;;4975125;28;20077;-67
2022/05/23 08:16:50;;;;;;;38.55;7.38;;;27.60;57.40;;;;;;4974719;28;20527;-68
2022/05/23 08:19:16;;;;;;;25.50;6.78;;;27.60;57.70;;;;;;4974871;28;20054;-69
2022/05/23 08:21:49;;;;;;;38.10;6.20;;;27.60;57.70;;;;;;4974897;28;20050;-73
2022/05/23 08:24:15;;;;;;;21.40;5.63;;;27.60;57.40;;;;;;4974706;28;20054;-71
2022/05/23 08:26:41;;;;;;;22.10;4.95;;;27.70;56.60;;;;;;4974808;28;20061;-73
2022/05/23 08:29:07;;;;;;;14.52;3.88;;;27.80;57.40;;;;;;4974545;28;20449;-74
2022/05/23 08:31:33;;;;;;;13.73;4.60;;;27.80;56.10;;;;;;4973170;28;20146;-69
2022/05/23 08:33:59;;;;;;;12.38;3.50;;;27.90;56.50;;;;;;4974514;28;20023;-68
2022/05/23 08:36:25;;;;;;;14.93;4.30;;;27.90;56.60;;;;;;4973185;28;20038;-70
2022/05/23 08:38:52;;;;;;;15.65;4.00;;;27.80;56.50;;;;;;4973143;28;20023;-71
2022/05/23 08:41:36;;;;;;;13.40;4.15;;;27.80;55.90;;;;;;4974342;28;20543;-70
2022/05/23 08:44:43;;;;;;;12.88;4.25;;;27.80;56.50;;;;;;4974681;28;20106;-70
2022/05/23 08:47:18;;;;;;;10.48;3.78;;;27.70;55.60;;;;;;4974143;28;20026;-72
2022/05/23 08:49:50;;;;;;;12.80;4.28;;;27.60;56.20;;;;;;4973905;28;20472;-70
2022/05/23 08:52:33;;;;;;;12.80;4.30;;;27.60;55.40;;;;;;4974212;28;20042;-69
2022/05/23 08:55:18;;;;;;;13.82;3.80;;;27.60;55.30;;;;;;4974137;28;20105;-69
2022/05/23 08:57:57;;;;;;;15.40;3.60;;;27.60;55.50;;;;;;4974295;28;20043;-72
2022/05/23 09:00:32;;;;;;;10.45;4.18;;;27.60;55.10;;;;;;4974053;28;20023;-70
2022/05/23 09:03:12;;;;;;;11.18;3.33;;;27.60;55.80;;;;;;4974117;28;20054;-71
2022/05/23 09:05:44;;;;;;;11.40;4.03;;;27.60;55.70;;;;;;4974366;28;20114;-70
2022/05/23 09:08:19;;;;;;;11.07;3.70;;;27.60;55.30;;;;;;4974282;28;20035;-70
2022/05/23 09:10:54;;;;;;;8.32;3.35;;;27.60;54.90;;;;;;4974273;28;20110;-70
2022/05/23 09:13:22;;;;;;;8.63;3.50;;;27.60;53.30;;;;;;4974381;28;20406;-69
2022/05/23 09:15:51;;;;;;;12.32;3.45;;;27.60;53.80;;;;;;4973968;28;20106;-70
2022/05/23 09:18:23;;;;;;;9.82;3.72;;;27.60;53.60;;;;;;4974127;28;20035;-71
2022/05/23 09:20:52;;;;;;;13.65;3.97;;;27.60;53.20;;;;;;4973825;28;20130;-73
2022/05/23 09:23:31;;;;;;;12.40;3.58;;;27.70;53.00;;;;;;4974127;28;20029;-73
2022/05/23 09:25:59;;;;;;;11.85;3.60;;;27.70;52.80;;;;;;4973884;28;20334;-69
2022/05/23 09:28:34;;;;;;;10.75;3.30;;;27.70;52.80;;;;;;4974179;28;20563;-72
2022/05/23 09:31:04;;;;;;;12.10;3.60;;;27.70;51.20;;;;;;4973574;28;20027;-68
2022/05/23 09:33:31;;;;;;;10.13;3.92;;;27.70;52.50;;;;;;4973983;28;20073;-72
2022/05/23 09:36:33;;;;;;;10.20;3.40;;;27.70;51.70;;;;;;4973882;28;20027;-75
2022/05/23 09:39:03;;;;;;;11.32;3.33;;;27.70;49.20;;;;;;4972459;28;20081;-76
2022/05/23 09:49:52;;;;;;;11.18;3.35;;;27.80;50.60;;;;;;4977477;28;20038;-71
2022/05/23 09:52:31;;;;;;;13.90;3.63;;;27.80;50.50;;;;;;4976281;28;20030;-70
2022/05/23 09:55:04;;;;;;;12.10;3.35;;;27.70;51.10;;;;;;4977755;28;20314;-71
2022/05/23 09:57:51;;;;;;;10.52;3.45;;;27.80;50.80;;;;;;4977919;28;20027;-76
2022/05/23 10:00:23;;;;;;;7.72;2.50;;;27.80;49.00;;;;;;4980747;28;20030;-74
2022/05/23 10:03:13;;;;;;;9.43;2.67;;;27.90;46.70;;;;;;4977768;28;20043;-69
2022/05/23 10:05:46;;;;;;;11.50;3.25;;;27.90;46.00;;;;;;4977472;28;20019;-70
2022/05/23 10:08:33;;;;;;;15.43;3.50;;;27.90;47.80;;;;;;4977260;28;20027;-75
2022/05/23 10:11:01;;;;;;;12.88;3.78;;;28.00;49.10;;;;;;4977407;28;20352;-71
2022/05/23 10:13:35;;;;;;;13.70;3.70;;;28.00;49.40;;;;;;4977306;28;20026;-77
2022/05/23 10:16:22;;;;;;;10.57;3.42;;;28.10;49.70;;;;;;4977290;28;20054;-73
2022/05/23 10:19:04;;;;;;;9.07;3.50;;;28.10;47.70;;;;;;4976857;28;20025;-72
2022/05/23 10:21:32;;;;;;;10.60;3.28;;;28.20;47.90;;;;;;4977040;28;20117;-75
2022/05/23 10:24:03;;;;;;;12.75;3.80;;;28.30;47.90;;;;;;4977160;28;20388;-70
2022/05/23 10:26:33;;;;;;;10.73;3.65;;;28.30;49.60;;;;;;4977067;28;20037;-71
2022/05/23 10:29:48;;;;;;;12.20;3.70;;;28.30;49.50;;;;;;4976711;28;20468;-72
2022/05/23 10:32:26;;;;;;;11.05;3.45;;;28.40;48.00;;;;;;4975213;28;20082;-72
2022/05/23 10:34:57;;;;;;;9.80;3.88;;;28.50;49.60;;;;;;4976866;28;20026;-75
2022/05/23 10:37:25;;;;;;;8.70;3.38;;;28.50;48.90;;;;;;4976888;28;20057;-74
2022/05/23 10:42:39;;;;;;;12.93;3.75;;;28.50;48.40;;;;;;4976764;28;20101;-75
2022/05/23 10:45:29;;;;;;;8.90;3.78;;;28.60;48.90;;;;;;4976980;28;20445;-76
2022/05/23 10:48:27;;;;;;;7.60;3.50;;;28.60;46.90;;;;;;4976810;28;20031;-74
2022/05/23 10:51:14;;;;;;;7.00;3.63;;;28.50;48.10;;;;;;4964332;28;20050;-69
2022/05/23 10:54:05;;;;;;;10.85;4.00;;;28.50;46.70;;;;;;4976395;28;20119;-71
2022/05/23 10:56:42;;;;;;;8.65;3.78;;;28.60;46.60;;;;;;4975598;28;20089;-71
2022/05/23 10:59:38;;;;;;;11.75;3.50;;;28.60;46.20;;;;;;4976483;28;20038;-70
2022/05/23 11:02:24;;;;;;;13.38;3.55;;;28.70;46.00;;;;;;4976377;28;20030;-71
2022/05/23 11:05:15;;;;;;;9.77;3.38;;;28.80;47.10;;;;;;4976179;28;20439;-72
2022/05/23 11:08:00;;;;;;;9.20;3.42;;;28.90;47.70;;;;;;4976348;28;20019;-70
2022/05/23 11:10:51;;;;;;;10.88;4.95;;;28.90;46.20;;;;;;4976075;28;20033;-70
2022/05/23 11:13:51;;;;;;;13.95;3.38;;;29.00;46.70;;;;;;4976052;28;20034;-70
2022/05/23 11:16:22;;;;;;;6.80;3.00;;;29.00;46.80;;;;;;4976042;28;20133;-72
2022/05/23 11:18:52;;;;;;;9.15;3.03;;;29.00;48.10;;;;;;4975863;28;20031;-72
2022/05/23 11:21:58;;;;;;;9.98;3.28;;;29.00;46.90;;;;;;4976111;28;20054;-72
2022/05/23 11:24:41;;;;;;;6.20;2.65;;;29.10;46.50;;;;;;4976015;28;20031;-71
2022/05/23 11:36:09;;;;;;;10.20;3.08;;;29.30;46.80;;;;;;4975761;28;20101;-70
2022/05/23 11:38:41;;;;;;;6.22;2.28;;;29.40;45.70;;;;;;4975838;28;20031;-75
2022/05/23 11:41:32;;;;;;;8.02;2.42;;;29.40;44.20;;;;;;4975770;28;20035;-70
2022/05/23 11:43:58;;;;;;;10.30;2.50;;;29.40;42.80;;;;;;4975607;28;20119;-73
2022/05/23 11:46:27;;;;;;;5.28;2.60;;;29.40;43.80;;;;;;4976323;28;20074;-71
2022/05/23 11:49:00;;;;;;;8.63;2.33;;;29.50;43.80;;;;;;4975742;28;20034;-73
2022/05/23 11:51:36;;;;;;;;;;;29.60;42.80;;;;;;4975833;28;20137;-73
2022/05/23 11:54:06;;;;;;;8.88;2.35;;;29.60;44.60;;;;;;4975918;28;19906;-72
2022/05/23 11:56:43;;;;;;;5.47;2.20;;;29.70;42.20;;;;;;4975345;28;20041;-73
2022/05/23 11:59:13;;;;;;;7.65;2.50;;;29.80;42.00;;;;;;4975438;28;20027;-72
2022/05/23 12:01:39;;;;;;;7.10;2.42;;;29.90;41.80;;;;;;4975407;28;20097;-74
2022/05/23 12:04:05;;;;;;;7.05;2.55;;;29.90;41.10;;;;;;4975433;28;20031;-72
2022/05/23 12:06:32;;;;;;;7.78;2.58;;;30.00;39.70;;;;;;4974727;28;20145;-73
2022/05/23 12:08:57;;;;;;;7.30;2.63;;;30.00;39.50;;;;;;4975027;28;20105;-75
2022/05/23 12:11:25;;;;;;;6.20;2.28;;;30.00;39.30;;;;;;4975189;28;20488;-73
2022/05/23 12:13:57;;;;;;;12.10;4.70;;;30.00;39.50;;;;;;4975302;28;20034;-75
2022/05/23 12:16:32;;;;;;;7.70;3.00;;;30.10;39.70;;;;;;4975425;28;20031;-74
2022/05/23 12:19:33;;;;;;;6.38;2.60;;;30.20;39.60;;;;;;4975387;28;20033;-72
2022/05/23 12:22:33;;;;;;;6.38;2.00;;;30.30;39.70;;;;;;4974926;28;20038;-76
2022/05/23 12:25:08;;;;;;;5.38;2.00;;;30.30;38.50;;;;;;4970661;28;20063;-76
2022/05/23 12:27:39;;;;;;;6.25;1.95;;;30.40;38.90;;;;;;4975726;28;20062;-76
2022/05/23 12:30:17;;;;;;;7.60;2.08;;;30.40;38.50;;;;;;4975741;28;20023;-73
2022/05/23 12:33:00;;;;;;;7.32;2.00;;;30.40;38.80;;;;;;4975147;28;20365;-70
2022/05/23 12:35:57;;;;;;;6.07;1.83;;;30.30;38.30;;;;;;4975081;28;20097;-71
2022/05/23 12:38:32;;;;;;;6.53;2.17;;;30.20;37.90;;;;;;4974934;28;20030;-76
2022/05/23 12:41:03;;;;;;;5.55;2.03;;;30.20;38.20;;;;;;4974862;28;20057;-72
2022/05/23 12:43:44;;;;;;;6.85;2.00;;;30.20;38.40;;;;;;4974843;28;20491;-73
2022/05/23 12:46:12;;;;;;;9.70;3.30;;;30.20;37.90;;;;;;4974963;28;20480;-72
2022/05/23 12:48:54;;;;;;;8.57;2.05;;;30.20;37.90;;;;;;4974740;28;20042;-72
2022/05/23 12:52:15;;;;;;;7.63;2.28;;;30.10;37.80;;;;;;4974414;28;20054;-73
2022/05/23 12:55:05;;;;;;;7.05;2.13;;;30.10;37.70;;;;;;4955957;28;20031;-72
2022/05/23 12:57:52;;;;;;;8.25;2.28;;;30.20;38.00;;;;;;4974444;28;20034;-71
2022/05/23 13:00:21;;;;;;;5.82;2.25;;;30.20;37.90;;;;;;4974531;28;20040;-73
2022/05/23 13:03:08;;;;;;;6.32;2.90;;;30.20;37.50;;;;;;4974549;28;20035;-71
2022/05/23 13:05:51;;;;;;;5.65;2.13;;;30.20;37.70;;;;;;4974669;28;20034;-73
2022/05/23 13:08:29;;;;;;;6.03;1.92;;;30.20;37.30;;;;;;4972994;28;20582;-73
2022/05/23 13:11:05;;;;;;;7.28;2.10;;;30.30;37.50;;;;;;4972764;28;20037;-71
2022/05/23 13:13:38;;;;;;;5.82;2.10;;;30.30;38.00;;;;;;4973188;28;20026;-70
2022/05/23 13:16:28;;;;;;;4.00;2.00;;;30.40;38.50;;;;;;4974189;28;20035;-74
2022/05/23 13:22:05;;;;;;;3.50;1.80;;;30.50;38.80;;;;;;4974129;28;20062;-73
2022/05/23 13:24:50;;;;;;;5.82;2.03;;;30.50;38.50;;;;;;4972747;28;20444;-71
2022/05/23 13:27:26;;;;;;;7.35;1.70;;;30.50;39.30;;;;;;4973850;28;20034;-71
2022/05/23 13:30:00;;;;;;;5.30;1.75;;;30.50;40.00;;;;;;4973990;28;20027;-69
2022/05/23 13:32:28;;;;;;;6.65;2.00;;;30.50;39.60;;;;;;4973848;28;20399;-73
2022/05/23 13:34:56;;;;;;;3.95;1.80;;;30.60;39.70;;;;;;4973981;28;20027;-71
2022/05/23 13:37:34;;;;;;;6.60;2.25;;;30.60;38.90;;;;;;4972756;28;20121;-75
2022/05/23 13:40:29;;;;;;;5.32;1.92;;;30.60;38.70;;;;;;4974048;28;20062;-71
2022/05/23 13:43:19;;;;;;;5.78;1.70;;;30.70;38.10;;;;;;4971405;28;20042;-72
2022/05/23 13:46:05;;;;;;;6.78;2.10;;;30.70;37.60;;;;;;4974540;28;20023;-74
2022/05/23 13:48:44;;;;;;;8.98;2.60;;;30.60;38.50;;;;;;4973725;28;20134;-71
2022/05/23 13:51:19;;;;;;;5.85;2.30;;;30.60;38.80;;;;;;4974083;28;20051;-71
2022/05/23 13:53:49;;;;;;;6.10;1.70;;;30.60;38.50;;;;;;4973689;28;20035;-76
2022/05/23 13:56:15;;;;;;;4.90;1.80;;;30.60;38.70;;;;;;4973635;28;20045;-69
2022/05/23 13:58:53;;;;;;;8.00;1.90;;;30.70;38.60;;;;;;4973901;28;20031;-75